Hanska, Minnesota
Current Conditions -  °F | °C
As of 10:14 PM on Thursday 27 Nov 2014 (Local Time) from KULM Reporting Station
Light Snow Light Snow  
Wind Chill: -12°   Ceiling: 6000
Heat Index:   Visibility: 3mi
Dew Point:   Wind: 10mph
Humidity: 85%   Direction: 140°SE
Pressure: 30.24"   Gusts: NA
Location:  44.15°N, 94.49°W
Report Text: KULM 280414Z AUTO 14009KT 3SM -SN SCT012 BKN060 M16/M18 A3024 RMK AO2
Loading
Personal Weather Stations






























Interactive Weather Map New forecast layout! Learn more

10-Day Weather Forecast

Advertisements
Track Severe Weather on mobile